Time;durP1;ratioP1;P1;durP2;ratioP2;P2;SDS_P1;SDS_P2;PMS_P1;PMS_P2;Temp;Humidity;BMP_temperature;BMP_pressure;BME280_temperature;BME280_humidity;BME280_pressure;Samples;Min_cycle;Max_cycle;Signal;HPM_P1;HPM_P2
2022/07/16 00:01:22;;;;;;;5.68;2.92;;;16.30;99.90;;;;;;4980591;28;20128;-70
2022/07/16 00:03:57;;;;;;;4.15;2.53;;;16.30;99.90;;;;;;4996657;28;20080;-70
2022/07/16 00:06:24;;;;;;;4.32;2.78;;;16.30;99.90;;;;;;4996484;28;20057;-70
2022/07/16 00:08:51;;;;;;;8.60;3.10;;;16.20;99.90;;;;;;4996516;28;20046;-70
2022/07/16 00:11:17;;;;;;;4.60;2.75;;;16.30;99.90;;;;;;4996834;28;20045;-70
2022/07/16 00:13:44;;;;;;;8.00;2.90;;;16.30;99.90;;;;;;4996401;28;20049;-70
2022/07/16 00:16:10;;;;;;;4.07;2.70;;;16.30;99.90;;;;;;5013936;28;20042;-70
2022/07/16 00:21:22;;;;;;;3.28;2.30;;;16.40;99.90;;;;;;4996606;28;20459;-70
2022/07/16 00:23:48;;;;;;;4.95;2.38;;;16.40;99.90;;;;;;4993932;28;20049;-70
2022/07/16 00:26:14;;;;;;;4.22;2.25;;;16.50;99.90;;;;;;4996393;28;20042;-70
2022/07/16 00:28:40;;;;;;;3.72;2.08;;;16.50;99.90;;;;;;4996162;28;20072;-70
2022/07/16 00:31:06;;;;;;;4.15;2.03;;;16.60;99.90;;;;;;5013815;28;20046;-70
2022/07/16 00:33:32;;;;;;;4.60;2.03;;;16.60;99.90;;;;;;4996233;28;20068;-70
2022/07/16 00:35:58;;;;;;;3.38;2.05;;;16.60;99.90;;;;;;5013629;28;20112;-70
2022/07/16 00:38:24;;;;;;;4.18;1.77;;;16.70;99.90;;;;;;4996206;28;20052;-70
2022/07/16 00:40:50;;;;;;;3.67;2.20;;;16.70;99.90;;;;;;4996226;28;20373;-70
2022/07/16 00:43:16;;;;;;;8.05;2.08;;;16.70;99.90;;;;;;4995860;28;20042;-70
2022/07/16 00:45:42;;;;;;;4.28;2.00;;;16.70;99.90;;;;;;4995466;28;20038;-70
2022/07/16 00:48:09;;;;;;;4.50;2.85;;;16.80;99.90;;;;;;4995805;28;20046;-70
2022/07/16 00:50:36;;;;;;;5.85;2.50;;;16.80;99.90;;;;;;5013807;28;20038;-70
2022/07/16 00:53:03;;;;;;;4.95;2.83;;;16.80;99.90;;;;;;4993685;28;20080;-70
2022/07/16 00:55:29;;;;;;;5.45;2.78;;;16.90;99.90;;;;;;4996089;28;20092;-70
2022/07/16 00:57:57;;;;;;;5.40;2.90;;;16.90;99.90;;;;;;4995655;28;20045;-70
2022/07/16 01:00:24;;;;;;;5.65;3.53;;;16.90;99.90;;;;;;4995986;28;20046;-70
2022/07/16 01:02:50;;;;;;;6.47;3.15;;;16.90;99.90;;;;;;5013117;28;20423;-70
2022/07/16 01:05:17;;;;;;;8.25;3.42;;;16.90;99.90;;;;;;4995632;28;20065;-70
2022/07/16 01:07:44;;;;;;;6.97;3.33;;;16.80;99.90;;;;;;5013378;28;20041;-70
2022/07/16 01:10:10;;;;;;;8.20;3.28;;;16.80;99.90;;;;;;4979552;28;20053;-70
2022/07/16 01:12:38;;;;;;;8.23;3.60;;;16.70;99.90;;;;;;5012968;28;20038;-70
2022/07/16 01:15:04;;;;;;;8.73;3.85;;;16.70;99.90;;;;;;5013140;28;20038;-66
2022/07/16 01:17:30;;;;;;;5.38;2.20;;;16.70;99.90;;;;;;5013266;28;20083;-66
2022/07/16 01:19:56;;;;;;;6.22;2.17;;;16.60;99.90;;;;;;4995644;28;20459;-69
2022/07/16 01:22:25;;;;;;;4.57;2.25;;;16.60;99.90;;;;;;4993211;28;20045;-67
2022/07/16 01:24:52;;;;;;;5.45;2.00;;;16.50;99.90;;;;;;5012935;28;20046;-68
2022/07/16 01:27:19;;;;;;;6.55;2.40;;;16.40;99.90;;;;;;5013102;28;20040;-67
2022/07/16 01:29:45;;;;;;;4.70;2.20;;;16.30;99.90;;;;;;4995213;28;20041;-67
2022/07/16 01:32:11;;;;;;;5.95;2.03;;;16.20;99.90;;;;;;4995325;28;20054;-68
2022/07/16 01:34:38;;;;;;;5.60;1.83;;;16.10;99.90;;;;;;5012675;28;20085;-68
2022/07/16 01:37:06;;;;;;;5.78;2.10;;;16.10;99.90;;;;;;5013003;28;20041;-68
2022/07/16 01:39:34;;;;;;;6.03;2.03;;;16.00;99.90;;;;;;5012727;28;20084;-68
2022/07/16 01:42:04;;;;;;;8.23;2.00;;;16.00;99.90;;;;;;4979075;28;20550;-67
2022/07/16 01:44:31;;;;;;;4.18;1.85;;;16.00;99.90;;;;;;5005101;28;20485;-68
2022/07/16 01:46:58;;;;;;;6.53;2.05;;;15.90;99.90;;;;;;4959572;28;20040;-67
2022/07/16 01:49:24;;;;;;;6.40;2.00;;;15.90;99.90;;;;;;4993007;28;20050;-68
2022/07/16 01:51:50;;;;;;;8.20;2.28;;;15.90;99.90;;;;;;4957361;28;20042;-68
2022/07/16 01:54:17;;;;;;;4.63;1.95;;;15.90;99.90;;;;;;4975540;28;20045;-68
2022/07/16 01:56:43;;;;;;;5.10;2.03;;;15.90;99.90;;;;;;4975661;28;20551;-68
2022/07/16 01:59:09;;;;;;;6.55;1.60;;;15.90;99.90;;;;;;4978807;28;20042;-70
2022/07/16 02:01:34;;;;;;;4.88;2.03;;;15.90;99.90;;;;;;4997112;28;20432;-70
2022/07/16 02:04:00;;;;;;;7.50;1.90;;;15.80;99.90;;;;;;4996910;28;20039;-70
2022/07/16 02:06:27;;;;;;;6.25;2.00;;;15.80;99.90;;;;;;4996582;28;20137;-70
2022/07/16 02:08:53;;;;;;;5.90;1.98;;;15.80;99.90;;;;;;4996867;28;20138;-69
2022/07/16 02:11:18;;;;;;;4.68;1.77;;;15.70;99.90;;;;;;4962960;28;20552;-69
2022/07/16 02:13:45;;;;;;;4.35;1.50;;;15.70;99.90;;;;;;4996524;28;20042;-69
2022/07/16 02:16:11;;;;;;;6.95;1.95;;;15.70;99.90;;;;;;4979256;28;20038;-69
2022/07/16 02:18:37;;;;;;;9.85;2.78;;;15.70;99.90;;;;;;4996795;28;20046;-69
2022/07/16 02:21:03;;;;;;;5.55;1.70;;;15.70;99.90;;;;;;4963046;28;20508;-69
2022/07/16 02:23:29;;;;;;;4.82;1.77;;;15.70;99.90;;;;;;4994066;28;20477;-69
2022/07/16 02:25:55;;;;;;;4.30;1.85;;;15.60;99.90;;;;;;4978983;28;20084;-69
2022/07/16 02:28:22;;;;;;;7.43;2.40;;;15.60;99.90;;;;;;4978904;28;20049;-69
2022/07/16 02:30:49;;;;;;;3.92;1.70;;;15.60;99.90;;;;;;4963224;28;20038;-69
2022/07/16 02:33:20;;;;;;;5.72;1.73;;;15.60;99.90;;;;;;4979057;28;20042;-69
2022/07/16 02:35:46;;;;;;;4.97;1.70;;;15.60;99.90;;;;;;4978888;28;20042;-68
2022/07/16 02:38:13;;;;;;;6.22;1.83;;;15.60;99.90;;;;;;4978793;28;20055;-69
2022/07/16 02:40:40;;;;;;;5.18;1.73;;;15.50;99.90;;;;;;4996123;28;20039;-69
2022/07/16 02:43:08;;;;;;;4.40;1.58;;;15.60;99.90;;;;;;4978730;28;20050;-69
2022/07/16 02:45:37;;;;;;;3.75;1.25;;;15.60;99.90;;;;;;4994541;28;20042;-69
2022/07/16 02:48:04;;;;;;;6.83;1.67;;;15.60;99.90;;;;;;4998114;28;20100;-70
2022/07/16 02:50:31;;;;;;;6.15;1.48;;;15.60;99.90;;;;;;5015704;28;20030;-69
2022/07/16 02:52:56;;;;;;;4.32;1.40;;;15.60;99.90;;;;;;4995792;28;20077;-69
2022/07/16 02:55:23;;;;;;;6.15;1.65;;;15.50;99.90;;;;;;5015455;28;20076;-68
2022/07/16 02:57:49;;;;;;;3.55;2.00;;;15.50;99.90;;;;;;4998283;28;20048;-68
2022/07/16 03:00:16;;;;;;;4.75;1.67;;;15.50;99.90;;;;;;5015481;28;20078;-68
2022/07/16 03:02:43;;;;;;;3.72;1.40;;;15.50;99.90;;;;;;4997781;28;20046;-69
2022/07/16 03:05:10;;;;;;;6.88;2.00;;;15.50;99.90;;;;;;5014929;28;20155;-70
2022/07/16 03:07:36;;;;;;;4.63;2.00;;;15.40;99.90;;;;;;5015342;28;20050;-68
2022/07/16 03:10:02;;;;;;;5.18;2.30;;;15.40;99.90;;;;;;4996303;28;20092;-68
2022/07/16 03:12:28;;;;;;;6.50;1.60;;;15.40;99.90;;;;;;5015462;28;20129;-69
2022/07/16 03:14:54;;;;;;;6.45;1.90;;;15.40;99.90;;;;;;4981324;28;20124;-68
2022/07/16 03:17:19;;;;;;;7.13;1.95;;;15.30;99.90;;;;;;5015054;28;20045;-68
2022/07/16 03:19:45;;;;;;;4.32;1.65;;;15.20;99.90;;;;;;4997464;28;20045;-69
2022/07/16 03:22:11;;;;;;;5.35;2.53;;;15.10;99.90;;;;;;4995426;28;20108;-68
2022/07/16 03:24:37;;;;;;;6.55;1.80;;;15.10;99.90;;;;;;4981079;28;20432;-67
2022/07/16 03:27:03;;;;;;;4.25;1.48;;;15.00;99.90;;;;;;5015284;28;20197;-70
2022/07/16 03:29:29;;;;;;;5.30;1.60;;;15.00;99.90;;;;;;4997188;28;20045;-68
2022/07/16 03:31:55;;;;;;;6.45;1.80;;;15.00;99.90;;;;;;5014925;28;20076;-68
2022/07/16 03:34:20;;;;;;;9.75;2.25;;;14.90;99.90;;;;;;4997131;28;20034;-68
2022/07/16 03:36:46;;;;;;;6.03;2.08;;;14.90;99.90;;;;;;4997510;28;20492;-69
2022/07/16 03:39:12;;;;;;;4.65;1.80;;;14.90;99.90;;;;;;5014376;28;20065;-68
2022/07/16 03:41:39;;;;;;;4.30;2.00;;;14.80;99.90;;;;;;5014974;28;20038;-68
2022/07/16 03:44:08;;;;;;;7.20;2.45;;;14.80;99.90;;;;;;4993165;28;20038;-68
2022/07/16 03:46:35;;;;;;;6.43;2.60;;;14.70;99.90;;;;;;4977580;28;20050;-67
2022/07/16 03:49:02;;;;;;;9.02;2.85;;;14.60;99.90;;;;;;4994914;28;20046;-68
2022/07/16 03:51:28;;;;;;;7.70;2.20;;;14.60;99.90;;;;;;4994827;28;20038;-68
2022/07/16 03:53:54;;;;;;;7.70;2.47;;;14.50;99.90;;;;;;4959100;28;20038;-68
2022/07/16 03:56:20;;;;;;;6.38;2.30;;;14.50;99.90;;;;;;4977309;28;20165;-68
2022/07/16 03:58:46;;;;;;;9.45;2.20;;;14.40;99.90;;;;;;4977212;28;20046;-67
2022/07/16 04:01:12;;;;;;;7.28;2.45;;;14.40;99.90;;;;;;4961438;28;20045;-69
2022/07/16 04:03:39;;;;;;;6.82;2.45;;;14.40;99.90;;;;;;4994849;28;20125;-67
2022/07/16 04:06:06;;;;;;;7.70;2.17;;;14.40;99.90;;;;;;4976938;28;20374;-68
2022/07/16 04:08:32;;;;;;;7.60;2.80;;;14.40;99.90;;;;;;4977151;28;20042;-68
2022/07/16 04:10:58;;;;;;;4.72;2.17;;;14.40;99.90;;;;;;4994448;28;20467;-68
2022/07/16 04:13:24;;;;;;;4.90;2.10;;;14.40;99.90;;;;;;4994632;28;20043;-67
2022/07/16 04:15:50;;;;;;;7.75;1.85;;;14.40;99.90;;;;;;4994573;28;20374;-67
2022/07/16 04:18:16;;;;;;;9.68;2.83;;;14.40;99.90;;;;;;4977249;28;20047;-67
2022/07/16 04:20:41;;;;;;;7.50;2.35;;;14.40;99.90;;;;;;4976427;28;20428;-68
2022/07/16 04:23:08;;;;;;;5.13;1.92;;;14.40;99.90;;;;;;4974716;28;20042;-69
2022/07/16 04:25:33;;;;;;;6.55;1.60;;;14.40;99.90;;;;;;4976772;28;20081;-68
2022/07/16 04:27:59;;;;;;;5.72;1.88;;;14.40;99.90;;;;;;4976916;28;20077;-68
2022/07/16 04:30:25;;;;;;;5.07;1.60;;;14.40;99.90;;;;;;4976826;28;20038;-69
2022/07/16 04:32:51;;;;;;;5.20;1.88;;;14.40;99.90;;;;;;4960664;28;20507;-69
2022/07/16 04:35:17;;;;;;;6.53;1.73;;;14.40;99.90;;;;;;4976911;28;20085;-68
2022/07/16 04:37:44;;;;;;;5.25;2.10;;;14.40;99.90;;;;;;4993999;28;20128;-68
2022/07/16 04:40:11;;;;;;;6.50;1.98;;;14.40;99.90;;;;;;4976524;28;20042;-69
2022/07/16 04:42:39;;;;;;;5.85;1.58;;;14.40;99.90;;;;;;4993898;28;20081;-68
2022/07/16 04:45:06;;;;;;;6.15;2.10;;;14.30;99.90;;;;;;4976618;28;20489;-69
2022/07/16 04:47:32;;;;;;;6.28;1.85;;;14.30;99.90;;;;;;4976559;28;20045;-69
2022/07/16 04:49:58;;;;;;;6.53;1.75;;;14.30;99.90;;;;;;4993703;28;20046;-68
2022/07/16 04:52:24;;;;;;;7.60;1.40;;;14.40;99.90;;;;;;4991766;28;20042;-69
2022/07/16 04:54:50;;;;;;;7.50;1.73;;;14.40;99.90;;;;;;4976255;28;20046;-68
2022/07/16 04:57:16;;;;;;;6.40;1.80;;;14.40;99.90;;;;;;4976434;28;20528;-69
2022/07/16 04:59:42;;;;;;;6.30;1.40;;;14.50;99.90;;;;;;4960126;28;20045;-69
2022/07/16 05:04:52;;;;;;;6.10;1.75;;;14.50;99.90;;;;;;4981521;28;20050;-68
2022/07/16 05:07:19;;;;;;;5.93;1.85;;;14.60;99.90;;;;;;5013509;28;20045;-68
2022/07/16 05:09:45;;;;;;;9.00;2.30;;;14.60;99.90;;;;;;4995878;28;20042;-68
2022/07/16 05:12:10;;;;;;;6.85;1.45;;;14.60;99.90;;;;;;4979360;28;20388;-68
2022/07/16 05:14:36;;;;;;;8.07;1.60;;;14.60;99.90;;;;;;4979328;28;20046;-68
2022/07/16 05:17:02;;;;;;;8.75;1.88;;;14.60;99.90;;;;;;4995555;28;20046;-68
2022/07/16 05:19:28;;;;;;;7.85;2.30;;;14.70;99.90;;;;;;4979269;28;20085;-69
2022/07/16 05:21:54;;;;;;;3.20;1.52;;;14.70;99.90;;;;;;4993752;28;20080;-69
2022/07/16 05:24:19;;;;;;;6.88;1.85;;;14.70;99.90;;;;;;5013042;28;20053;-68
2022/07/16 05:26:45;;;;;;;4.93;1.50;;;14.80;99.90;;;;;;5013076;28;20100;-69
2022/07/16 05:29:11;;;;;;;6.32;1.23;;;14.80;99.90;;;;;;5012788;28;20170;-68
2022/07/16 05:31:37;;;;;;;6.38;1.52;;;14.80;99.90;;;;;;4978740;28;20037;-68
2022/07/16 05:34:02;;;;;;;6.30;2.10;;;14.90;99.90;;;;;;4994929;28;20049;-68
2022/07/16 05:36:28;;;;;;;8.07;1.92;;;15.00;99.90;;;;;;4995361;28;20046;-69
2022/07/16 05:38:56;;;;;;;6.88;1.70;;;15.00;99.90;;;;;;4995222;28;20049;-68
2022/07/16 05:41:22;;;;;;;5.78;1.48;;;15.10;99.90;;;;;;5012745;28;20073;-67
2022/07/16 05:43:47;;;;;;;5.82;1.67;;;15.10;99.90;;;;;;4995094;28;20049;-68
2022/07/16 05:46:13;;;;;;;3.65;0.80;;;15.10;99.90;;;;;;4994966;28;20050;-68
2022/07/16 05:48:39;;;;;;;7.32;1.67;;;15.20;99.90;;;;;;4994912;28;20049;-69
2022/07/16 05:51:05;;;;;;;8.15;1.55;;;15.30;99.90;;;;;;5012599;28;20061;-67
2022/07/16 05:53:31;;;;;;;12.82;1.75;;;15.30;99.90;;;;;;5010773;28;20054;-66
2022/07/16 05:55:56;;;;;;;4.72;1.10;;;15.40;99.90;;;;;;5012688;28;20052;-68
2022/07/16 05:58:22;;;;;;;4.95;1.25;;;15.40;99.90;;;;;;5012788;28;20149;-67
2022/07/16 06:00:48;;;;;;;4.72;1.60;;;15.50;99.90;;;;;;4995072;28;20150;-67
2022/07/16 06:03:14;;;;;;;3.67;1.10;;;15.50;99.90;;;;;;5012461;28;20053;-68
2022/07/16 06:05:40;;;;;;;4.78;1.30;;;15.60;99.90;;;;;;5012407;28;20050;-69
2022/07/16 06:08:05;;;;;;;7.03;1.10;;;15.70;99.90;;;;;;5012588;28;20049;-70
2022/07/16 06:10:31;;;;;;;5.03;1.33;;;15.70;99.90;;;;;;5012640;28;20042;-69
2022/07/16 06:13:00;;;;;;;6.75;1.38;;;15.80;99.90;;;;;;5012540;28;20042;-67
2022/07/16 06:15:26;;;;;;;6.88;1.25;;;15.80;99.90;;;;;;5012580;28;20046;-68
2022/07/16 06:17:52;;;;;;;5.28;0.98;;;15.90;99.90;;;;;;5012403;28;20108;-68
2022/07/16 06:20:17;;;;;;;8.48;1.58;;;16.00;99.90;;;;;;4994991;28;20547;-67
2022/07/16 06:22:43;;;;;;;6.50;1.67;;;16.10;99.90;;;;;;4992644;28;20046;-68
2022/07/16 06:25:09;;;;;;;3.53;0.93;;;16.20;99.90;;;;;;4994786;28;20144;-68
2022/07/16 06:27:40;;;;;;;8.77;1.75;;;16.30;99.90;;;;;;4978680;28;20099;-66
2022/07/16 06:30:06;;;;;;;5.53;1.27;;;16.40;99.90;;;;;;4979928;28;20496;-66
2022/07/16 06:32:32;;;;;;;3.60;1.40;;;16.50;99.90;;;;;;5012766;28;20084;-68
2022/07/16 06:34:58;;;;;;;5.63;1.58;;;16.70;99.90;;;;;;4994786;28;20042;-67
2022/07/16 06:37:24;;;;;;;7.43;1.77;;;16.90;99.90;;;;;;4994743;28;20038;-67
2022/07/16 06:39:50;;;;;;;4.85;1.15;;;17.30;99.90;;;;;;5012425;28;20038;-67
2022/07/16 06:42:16;;;;;;;6.63;1.10;;;17.60;99.90;;;;;;5012212;28;20050;-66
2022/07/16 06:44:41;;;;;;;4.65;0.98;;;17.90;99.90;;;;;;4981040;28;20042;-69
2022/07/16 06:47:08;;;;;;;5.15;1.33;;;18.00;99.90;;;;;;5015580;28;20082;-68
2022/07/16 06:49:33;;;;;;;10.23;1.80;;;17.80;99.90;;;;;;4998100;28;20038;-67
2022/07/16 06:51:59;;;;;;;6.72;1.30;;;17.50;99.90;;;;;;4995727;28;20045;-67
2022/07/16 06:54:25;;;;;;;3.75;1.10;;;17.30;99.90;;;;;;4998010;28;20038;-67
2022/07/16 06:56:51;;;;;;;5.35;1.65;;;17.00;99.90;;;;;;4981494;28;20069;-70
2022/07/16 06:59:17;;;;;;;3.92;0.80;;;16.80;99.90;;;;;;4997965;28;20041;-68
2022/07/16 07:01:43;;;;;;;4.07;0.98;;;16.70;99.90;;;;;;4995510;28;20119;-68
2022/07/16 07:04:09;;;;;;;7.53;1.10;;;16.50;99.90;;;;;;4982396;28;20512;-68
2022/07/16 07:06:35;;;;;;;5.72;1.17;;;16.50;99.90;;;;;;4978669;28;20085;-67
2022/07/16 07:09:00;;;;;;;3.78;1.15;;;16.50;99.90;;;;;;4995820;28;20042;-68
2022/07/16 07:11:26;;;;;;;7.47;1.50;;;16.50;99.90;;;;;;4995757;28;20042;-67
2022/07/16 07:13:52;;;;;;;10.77;1.50;;;16.50;99.90;;;;;;4995539;28;20050;-67
2022/07/16 07:16:18;;;;;;;6.70;0.90;;;16.50;99.90;;;;;;4978191;28;20054;-70
2022/07/16 07:18:44;;;;;;;5.20;1.13;;;16.50;99.90;;;;;;4979608;28;20050;-67
2022/07/16 07:21:10;;;;;;;6.55;1.30;;;16.50;99.90;;;;;;5015189;28;20038;-67
2022/07/16 07:23:36;;;;;;;5.55;1.00;;;16.50;99.90;;;;;;5012674;28;20541;-68
2022/07/16 07:26:02;;;;;;;8.63;1.55;;;16.60;99.90;;;;;;4997448;28;20042;-66
2022/07/16 07:28:30;;;;;;;7.63;1.73;;;16.80;99.90;;;;;;4975727;28;20112;-66
2022/07/16 07:30:56;;;;;;;2.70;0.80;;;17.10;99.90;;;;;;4996356;28;20038;-66
2022/07/16 07:33:23;;;;;;;5.65;1.13;;;17.40;99.90;;;;;;4981065;28;20042;-68
2022/07/16 07:35:49;;;;;;;6.30;0.90;;;17.80;99.90;;;;;;4997338;28;20060;-67
2022/07/16 07:38:16;;;;;;;5.63;1.13;;;17.60;99.90;;;;;;5029801;28;20053;-67
2022/07/16 07:40:41;;;;;;;3.60;0.80;;;17.30;99.90;;;;;;4996956;28;20104;-66
2022/07/16 07:43:07;;;;;;;4.07;1.00;;;17.30;99.90;;;;;;5014395;28;20093;-67
2022/07/16 07:45:33;;;;;;;3.58;0.70;;;17.50;99.90;;;;;;4965117;28;20047;-66
2022/07/16 07:47:59;;;;;;;5.85;0.60;;;17.80;99.90;;;;;;4977622;28;20049;-67
2022/07/16 07:50:25;;;;;;;3.25;0.80;;;18.10;99.90;;;;;;4977418;28;20041;-68
2022/07/16 07:52:52;;;;;;;4.20;0.70;;;18.50;99.90;;;;;;4974912;28;20508;-67
2022/07/16 07:55:19;;;;;;;9.35;1.17;;;18.80;99.90;;;;;;4996125;28;20057;-67
2022/07/16 07:57:45;;;;;;;3.13;0.98;;;19.10;99.90;;;;;;4996552;28;20077;-66
2022/07/16 08:00:11;;;;;;;4.18;0.80;;;19.20;99.90;;;;;;5014254;28;20135;-67
2022/07/16 08:02:37;;;;;;;3.70;0.90;;;19.00;99.90;;;;;;4996171;28;20053;-66
2022/07/16 08:05:03;;;;;;;2.95;1.10;;;18.80;99.90;;;;;;4989324;28;20058;-67
2022/07/16 08:07:29;;;;;;;2.83;0.65;;;18.80;99.90;;;;;;4961081;28;20409;-66
2022/07/16 08:09:55;;;;;;;4.45;1.17;;;18.90;99.90;;;;;;4994413;28;20050;-65
2022/07/16 08:12:21;;;;;;;6.28;0.93;;;18.70;99.90;;;;;;4994460;28;20096;-66
2022/07/16 08:14:46;;;;;;;5.88;1.20;;;18.60;99.90;;;;;;4976896;28;20480;-66
2022/07/16 08:17:12;;;;;;;4.90;1.35;;;18.80;99.90;;;;;;4977151;28;20044;-70
2022/07/16 08:19:38;;;;;;;2.90;0.50;;;19.30;99.90;;;;;;4976776;28;20427;-68
2022/07/16 08:22:04;;;;;;;3.42;0.65;;;19.80;99.90;;;;;;4974956;28;20041;-67
2022/07/16 08:27:14;;;;;;;4.50;1.00;;;20.40;99.90;;;;;;4994191;28;20054;-67
2022/07/16 08:29:40;;;;;;;2.17;0.70;;;20.30;99.90;;;;;;4976721;28;20047;-68
2022/07/16 08:32:06;;;;;;;3.65;0.80;;;20.00;99.90;;;;;;4976800;28;20073;-66
2022/07/16 08:34:32;;;;;;;2.83;0.60;;;19.80;99.90;;;;;;4992453;28;20650;-67
2022/07/16 08:37:00;;;;;;;2.72;0.70;;;19.50;99.90;;;;;;4994048;28;20109;-67
2022/07/16 08:39:26;;;;;;;3.65;0.73;;;19.10;99.90;;;;;;4976664;28;20365;-70
2022/07/16 08:41:53;;;;;;;4.35;0.80;;;18.80;99.90;;;;;;4993939;28;20038;-68
2022/07/16 08:44:19;;;;;;;4.35;1.27;;;19.00;99.90;;;;;;4988060;28;20097;-69
2022/07/16 08:46:45;;;;;;;5.63;1.00;;;19.40;99.90;;;;;;4957009;28;20133;-70
2022/07/16 08:49:11;;;;;;;5.57;0.88;;;20.00;99.90;;;;;;4974542;28;20078;-70
2022/07/16 08:51:39;;;;;;;2.80;0.85;;;20.80;99.90;;;;;;4941141;28;20074;-68
2022/07/16 08:54:20;;;;;;;5.50;0.90;;;21.20;99.90;;;;;;4972179;28;20096;-67
2022/07/16 08:56:49;;;;;;;2.33;0.70;;;21.00;99.90;;;;;;4970635;28;20042;-68
2022/07/16 08:59:15;;;;;;;4.10;0.70;;;20.70;99.90;;;;;;4976378;28;20061;-67
2022/07/16 09:01:41;;;;;;;5.88;1.42;;;20.30;99.90;;;;;;4976180;28;20038;-69
2022/07/16 09:04:07;;;;;;;3.63;0.60;;;20.00;99.90;;;;;;4993317;28;20101;-69
2022/07/16 09:06:33;;;;;;;3.67;0.95;;;19.90;99.90;;;;;;4959480;28;20516;-70
2022/07/16 09:08:59;;;;;;;4.82;0.90;;;19.90;99.90;;;;;;4975961;28;20084;-69
2022/07/16 09:11:35;;;;;;;3.85;1.00;;;19.80;99.90;;;;;;4960437;28;20380;-70
2022/07/16 09:14:11;;;;;;;5.25;0.82;;;19.60;99.90;;;;;;4975984;28;20038;-67
2022/07/16 09:16:38;;;;;;;5.80;1.35;;;19.40;99.90;;;;;;4960088;28;20510;-67
2022/07/16 09:19:05;;;;;;;4.40;0.98;;;19.30;99.90;;;;;;4975616;28;20153;-69
2022/07/16 09:21:32;;;;;;;5.60;1.08;;;19.40;99.90;;;;;;4960140;28;20377;-68
2022/07/16 09:23:58;;;;;;;2.88;0.98;;;19.70;99.90;;;;;;4973898;28;20042;-68
2022/07/16 09:26:27;;;;;;;5.97;1.00;;;20.20;99.90;;;;;;4975365;28;20511;-66
2022/07/16 09:28:53;;;;;;;25.55;2.28;;;20.70;99.90;;;;;;4956255;28;20065;-68
2022/07/16 09:31:40;;;;;;;5.85;1.35;;;21.20;99.90;;;;;;4956505;28;20397;-70
2022/07/16 09:34:14;;;;;;;2.00;0.70;;;21.70;97.00;;;;;;4973384;28;20130;-67
2022/07/16 09:37:02;;;;;;;2.60;0.63;;;21.40;96.90;;;;;;4936855;28;20077;-68
2022/07/16 09:39:30;;;;;;;2.58;0.93;;;21.30;97.10;;;;;;4973692;28;20043;-66
2022/07/16 09:41:56;;;;;;;3.92;0.88;;;21.30;96.50;;;;;;4956167;28;20054;-68
2022/07/16 09:44:29;;;;;;;8.80;1.27;;;21.50;97.20;;;;;;4962204;28;20053;-68
2022/07/16 09:47:08;;;;;;;2.88;0.70;;;21.70;97.20;;;;;;4992696;28;20039;-67
2022/07/16 09:49:36;;;;;;;3.88;1.00;;;21.50;96.40;;;;;;4992822;28;20121;-68
2022/07/16 09:52:32;;;;;;;5.95;1.20;;;21.00;96.40;;;;;;4973227;28;20038;-71
2022/07/16 09:54:59;;;;;;;2.47;0.70;;;20.80;97.50;;;;;;4975398;28;20042;-70
2022/07/16 09:57:27;;;;;;;3.65;0.80;;;21.00;96.70;;;;;;5012469;28;20110;-71
2022/07/16 09:59:54;;;;;;;2.60;0.70;;;21.20;95.50;;;;;;4994960;28;20104;-71
2022/07/16 10:02:20;;;;;;;3.58;0.88;;;21.20;95.60;;;;;;4995255;28;20092;-71
2022/07/16 10:04:46;;;;;;;7.22;1.35;;;21.00;96.40;;;;;;5012096;28;20096;-71
2022/07/16 10:07:12;;;;;;;5.13;1.42;;;20.80;96.80;;;;;;5012468;28;20085;-71
2022/07/16 10:09:38;;;;;;;2.72;0.82;;;20.40;97.10;;;;;;4995226;28;20038;-69
2022/07/16 10:12:08;;;;;;;3.58;0.90;;;20.10;97.80;;;;;;4994956;28;20476;-70
2022/07/16 10:14:42;;;;;;;;;;;19.90;97.80;;;;;;4995313;28;20125;-70
2022/07/16 10:17:20;;;;;;;5.15;1.33;;;19.90;98.80;;;;;;4980409;28;19918;-72
2022/07/16 10:20:01;;;;;;;5.25;0.95;;;20.00;98.60;;;;;;4978223;28;20038;-70
2022/07/16 10:22:35;;;;;;;5.03;1.20;;;19.90;99.60;;;;;;4976982;28;20061;-70
2022/07/16 10:25:11;;;;;;;3.67;1.00;;;19.70;99.90;;;;;;4979046;28;20057;-71
2022/07/16 10:27:37;;;;;;;4.68;1.00;;;19.60;99.90;;;;;;4978967;28;20050;-70
2022/07/16 10:30:22;;;;;;;2.53;0.80;;;19.80;99.90;;;;;;4978914;28;20050;-69
2022/07/16 10:33:03;;;;;;;6.47;1.00;;;20.30;99.90;;;;;;4978991;28;20043;-70
2022/07/16 10:35:43;;;;;;;6.60;1.05;;;20.50;99.90;;;;;;4996381;28;20038;-69
2022/07/16 10:38:10;;;;;;;5.88;1.08;;;20.40;99.90;;;;;;4996390;28;20042;-69
2022/07/16 10:40:38;;;;;;;4.38;0.75;;;20.50;99.90;;;;;;4978813;28;20493;-70
2022/07/16 10:43:12;;;;;;;5.00;1.27;;;20.50;99.90;;;;;;4996392;28;20045;-69
2022/07/16 10:45:58;;;;;;;3.30;0.95;;;20.50;99.90;;;;;;4962155;28;20394;-69
2022/07/16 10:48:27;;;;;;;4.57;1.00;;;21.00;99.90;;;;;;4959546;28;20623;-70
2022/07/16 10:51:19;;;;;;;3.08;0.80;;;21.70;99.90;;;;;;4959409;28;20093;-69
2022/07/16 10:53:57;;;;;;;7.43;1.17;;;22.10;99.90;;;;;;4957363;28;20066;-69
2022/07/16 10:56:44;;;;;;;4.32;0.80;;;22.30;99.60;;;;;;4970015;28;20414;-70
2022/07/16 10:59:12;;;;;;;5.75;1.33;;;22.50;99.80;;;;;;4996019;28;20445;-70
2022/07/16 11:01:39;;;;;;;3.55;0.98;;;22.80;99.20;;;;;;4978316;28;20725;-69
2022/07/16 11:04:08;;;;;;;4.22;0.98;;;23.10;97.50;;;;;;4978232;28;20129;-68
2022/07/16 11:06:36;;;;;;;4.88;1.40;;;23.40;97.60;;;;;;4979844;28;20070;-70
2022/07/16 11:09:04;;;;;;;7.05;0.95;;;23.40;96.60;;;;;;4979417;28;20135;-67
2022/07/16 11:11:37;;;;;;;5.45;1.00;;;22.80;96.90;;;;;;4961961;28;20042;-70
2022/07/16 11:14:04;;;;;;;5.07;1.00;;;22.10;96.80;;;;;;4995493;28;20113;-70
2022/07/16 11:16:31;;;;;;;5.97;1.00;;;21.50;97.60;;;;;;4995757;28;20034;-70
2022/07/16 11:19:02;;;;;;;6.80;1.08;;;21.20;98.30;;;;;;4978176;28;20108;-69
2022/07/16 11:21:28;;;;;;;3.70;0.80;;;21.30;98.40;;;;;;4995476;28;20447;-69
2022/07/16 11:23:58;;;;;;;6.22;1.33;;;21.70;98.60;;;;;;4976050;28;20045;-70
2022/07/16 11:26:24;;;;;;;;;;;22.30;98.80;;;;;;4995912;28;20555;-70
2022/07/16 11:29:01;;;;;;;8.20;1.38;;;22.80;97.20;;;;;;4978112;28;19917;-72
2022/07/16 11:31:35;;;;;;;5.40;1.00;;;23.10;97.10;;;;;;4976958;28;20042;-71
2022/07/16 11:34:09;;;;;;;5.60;0.80;;;23.00;94.90;;;;;;4977901;28;20042;-68
2022/07/16 11:36:39;;;;;;;3.78;0.85;;;22.50;95.20;;;;;;4977833;28;20053;-70
2022/07/16 11:39:11;;;;;;;3.05;1.08;;;22.10;95.30;;;;;;4994459;28;20548;-70
2022/07/16 11:41:40;;;;;;;3.78;0.80;;;21.70;95.70;;;;;;4992210;28;20044;-69
2022/07/16 11:44:14;;;;;;;2.63;0.75;;;21.30;95.80;;;;;;4991079;28;20114;-69
2022/07/16 11:46:57;;;;;;;7.32;1.63;;;21.30;96.40;;;;;;4942129;28;20085;-70
2022/07/16 11:49:34;;;;;;;6.13;0.90;;;21.70;97.60;;;;;;4975405;28;20030;-69
2022/07/16 11:52:03;;;;;;;4.00;1.27;;;22.40;97.10;;;;;;4973277;28;20408;-72
2022/07/16 11:54:34;;;;;;;3.22;0.60;;;22.80;95.60;;;;;;4958375;28;20425;-71
2022/07/16 11:57:00;;;;;;;3.30;0.90;;;22.70;93.70;;;;;;4942194;28;20124;-69
2022/07/16 11:59:28;;;;;;;3.17;0.90;;;22.30;94.60;;;;;;4958182;28;20481;-71
2022/07/16 12:01:59;;;;;;;5.47;1.20;;;22.50;94.60;;;;;;4957838;28;20043;-68
2022/07/16 12:04:33;;;;;;;11.77;1.73;;;22.50;94.30;;;;;;4942989;28;20066;-68
2022/07/16 12:06:59;;;;;;;5.15;1.20;;;22.60;93.10;;;;;;5002954;28;20488;-71
2022/07/16 12:09:37;;;;;;;8.23;1.73;;;22.70;93.20;;;;;;5014142;28;20041;-70
2022/07/16 12:12:07;;;;;;;5.93;1.25;;;22.70;93.70;;;;;;5013845;28;20114;-72
2022/07/16 12:14:59;;;;;;;4.35;1.20;;;22.90;93.20;;;;;;5013572;28;20042;-70
2022/07/16 12:17:42;;;;;;;4.53;1.13;;;22.90;93.00;;;;;;5014126;28;20049;-71
2022/07/16 12:20:25;;;;;;;2.63;0.70;;;23.20;93.50;;;;;;4996206;28;20053;-71
2022/07/16 12:23:05;;;;;;;4.72;0.98;;;23.40;92.70;;;;;;5011359;28;20104;-70
2022/07/16 12:25:35;;;;;;;3.40;0.85;;;23.40;91.50;;;;;;5013626;28;20113;-70
2022/07/16 12:28:20;;;;;;;5.07;1.25;;;23.40;91.20;;;;;;5007525;28;20045;-68
2022/07/16 12:30:59;;;;;;;5.50;1.50;;;23.40;91.20;;;;;;5015792;28;20041;-71
2022/07/16 12:33:28;;;;;;;2.83;0.75;;;23.30;90.50;;;;;;5016041;28;20442;-70
2022/07/16 12:36:00;;;;;;;4.80;1.13;;;23.00;90.30;;;;;;5016094;28;20388;-71
2022/07/16 12:38:55;;;;;;;3.65;0.90;;;22.80;90.60;;;;;;5016049;28;20044;-71
2022/07/16 12:41:37;;;;;;;3.92;1.52;;;22.80;92.20;;;;;;5015388;28;20046;-70
2022/07/16 12:44:17;;;;;;;3.65;0.90;;;23.00;91.50;;;;;;5011990;28;20046;-71
2022/07/16 12:46:49;;;;;;;3.83;0.95;;;23.00;90.60;;;;;;4995094;28;20034;-71
2022/07/16 12:49:17;;;;;;;3.00;0.85;;;23.10;90.00;;;;;;4995144;28;20492;-73
2022/07/16 12:51:56;;;;;;;8.55;1.75;;;23.20;89.60;;;;;;5012557;28;20038;-71
2022/07/16 12:54:23;;;;;;;6.13;1.15;;;23.20;90.30;;;;;;4995199;28;20034;-71
2022/07/16 12:59:36;;;;;;;3.28;1.00;;;23.40;90.30;;;;;;4994901;28;20100;-70
2022/07/16 13:02:07;;;;;;;5.07;1.30;;;23.50;89.50;;;;;;5012377;28;20045;-71
2022/07/16 13:04:33;;;;;;;6.28;1.65;;;23.50;89.50;;;;;;5012259;28;20129;-70